Watton at Stone, United Kingdom
Current Conditions -  °F | °C
As of 6:20 AM on Friday 31 Oct 2014 (Local Time) from EGGW Reporting Station
Haze Haze  
Wind Chill: 55°   Ceiling: 100
Heat Index: 55°   Visibility: 0.75mi
Dew Point: 55°   Wind: 7mph
Humidity: 100%   Direction: 190°S
Pressure: 30.03"   Gusts: NA
Location:  51.86°N, 0.11°W
Report Text: EGGW 310620Z 19006KT 140V230 1200 R26/1300 BR OVC001 13/13 Q1017
Loading
Personal Weather Stations






























Interactive Weather Map
Tropical Storm Tracking
New forecast layout! Learn more

10-Day Weather Forecast

Advertisements
Track Severe Weather on mobile